createdAt,value
2023-04-26T00:02:27.638Z,99367.75
2023-04-26T00:05:01.629Z,99372.45
2023-04-26T00:07:32.742Z,99370.23
2023-04-26T00:10:03.430Z,99366.38
2023-04-26T00:12:33.756Z,99363.91
2023-04-26T00:15:05.305Z,99361.49
2023-04-26T00:17:37.081Z,99368.84
2023-04-26T00:20:12.493Z,99372.70
2023-04-26T00:22:42.621Z,99363.55
2023-04-26T00:25:14.791Z,99369.50
2023-04-26T00:27:45.317Z,99362.77
2023-04-26T00:30:17.299Z,99354.63
2023-04-26T00:32:48.331Z,99351.61
2023-04-26T00:35:19.769Z,99356.30
2023-04-26T00:37:50.499Z,99357.52
2023-04-26T00:40:22.068Z,99362.81
2023-04-26T00:42:58.924Z,99366.11
2023-04-26T00:45:30.530Z,99360.20
2023-04-26T00:48:02.959Z,99361.80
2023-04-26T00:50:33.594Z,99363.43
2023-04-26T00:53:07.181Z,99367.10
2023-04-26T00:55:38.130Z,99364.67
2023-04-26T00:58:08.470Z,99365.70
2023-04-26T01:00:39.173Z,99369.97
2023-04-26T01:03:10.818Z,99370.39
2023-04-26T01:05:42.073Z,99368.98
2023-04-26T01:08:16.859Z,99365.12
2023-04-26T01:10:49.089Z,99366.94
2023-04-26T01:13:19.590Z,99367.36
2023-04-26T01:15:51.260Z,99366.75
2023-04-26T01:18:21.674Z,99375.52
2023-04-26T01:20:53.636Z,99374.91
2023-04-26T01:23:23.957Z,99374.30
2023-04-26T01:25:56.131Z,99371.84
2023-04-26T01:28:26.446Z,99367.79
2023-04-26T01:30:56.312Z,99369.61
2023-04-26T01:33:27.085Z,99363.92
2023-04-26T01:35:57.621Z,99362.30
2023-04-26T01:38:27.938Z,99367.17
2023-04-26T01:40:58.260Z,99366.98
2023-04-26T01:43:28.373Z,99366.18
2023-04-26T01:45:59.188Z,99359.45
2023-04-26T01:48:32.912Z,99363.95
2023-04-26T01:51:04.651Z,99367.39
2023-04-26T01:53:36.632Z,99360.69
2023-04-26T01:56:09.406Z,99360.69
2023-04-26T01:58:41.167Z,99352.11
2023-04-26T02:01:11.718Z,99348.66
2023-04-26T02:03:41.866Z,99344.39
2023-04-26T02:06:12.567Z,99342.16
2023-04-26T02:08:42.462Z,99344.19
2023-04-26T02:11:12.072Z,99344.38
2023-04-26T02:13:42.488Z,99341.12
2023-04-26T02:16:12.694Z,99336.86
2023-04-26T02:18:43.857Z,99337.08
2023-04-26T02:21:16.574Z,99334.84
2023-04-26T02:23:47.268Z,99329.73
2023-04-26T02:26:17.605Z,99331.16
2023-04-26T02:28:48.315Z,99328.73
2023-04-26T02:31:19.624Z,99325.48
2023-04-26T02:33:51.420Z,99322.23
2023-04-26T02:36:22.154Z,99322.41
2023-04-26T02:38:53.464Z,99317.34
2023-04-26T02:41:24.641Z,99325.69
2023-04-26T02:43:55.169Z,99326.89
2023-04-26T02:46:25.410Z,99322.83
2023-04-26T02:48:55.832Z,99324.04
2023-04-26T02:51:27.182Z,99319.98
2023-04-26T02:53:57.285Z,99323.83
2023-04-26T02:56:29.039Z,99322.20
2023-04-26T02:58:59.764Z,99334.81
2023-04-26T03:01:30.564Z,99328.11
2023-04-26T03:04:01.087Z,99333.81
2023-04-26T03:06:32.988Z,99334.39
2023-04-26T03:09:05.175Z,99336.42
2023-04-26T03:11:34.669Z,99333.57
2023-04-26T03:14:05.614Z,99335.81
2023-04-26T03:16:43.216Z,99331.95
2023-04-26T03:19:14.232Z,99333.76
2023-04-26T03:21:45.366Z,99340.89
2023-04-26T03:24:15.902Z,99337.63
2023-04-26T03:26:46.017Z,99341.29
2023-04-26T03:29:17.977Z,99344.33
2023-04-26T03:31:48.334Z,99349.80
2023-04-26T03:34:18.830Z,99351.64
2023-04-26T03:36:49.561Z,99353.06
2023-04-26T03:39:20.497Z,99354.87
2023-04-26T03:41:51.024Z,99354.25
2023-04-26T03:44:21.152Z,99356.09
2023-04-26T03:46:51.674Z,99361.56
2023-04-26T03:49:22.413Z,99366.66
2023-04-26T03:51:53.347Z,99372.96
2023-04-26T03:54:24.071Z,99370.32
2023-04-26T03:56:55.417Z,99374.77
2023-04-26T03:59:26.149Z,99379.05
2023-04-26T04:01:57.134Z,99385.16
2023-04-26T04:04:28.096Z,99385.16
2023-04-26T04:06:59.586Z,99381.50
2023-04-26T04:09:29.899Z,99390.05
2023-04-26T04:12:00.832Z,99388.42
2023-04-26T04:14:31.564Z,99395.12
2023-04-26T04:17:02.296Z,99395.73
2023-04-26T04:19:34.465Z,99403.27
2023-04-26T04:22:05.197Z,99406.53
2023-04-26T04:24:35.931Z,99396.39
2023-04-26T04:27:07.279Z,99408.20
2023-04-26T04:29:38.007Z,99404.14
2023-04-26T04:32:09.760Z,99406.17
2023-04-26T04:34:41.318Z,99418.59
2023-04-26T04:37:12.471Z,99415.14
2023-04-26T04:39:43.398Z,99419.02
2023-04-26T04:42:13.933Z,99427.78
2023-04-26T04:44:45.477Z,99433.09
2023-04-26T04:47:17.199Z,99422.52
2023-04-26T04:49:47.756Z,99427.61
2023-04-26T04:52:19.511Z,99431.91
2023-04-26T04:54:50.050Z,99433.12
2023-04-26T04:57:20.981Z,99425.81
2023-04-26T04:59:51.708Z,99431.51
2023-04-26T05:02:22.392Z,99424.59
2023-04-26T05:04:53.060Z,99437.41
2023-04-26T05:07:24.606Z,99442.30
2023-04-26T05:09:56.895Z,99446.36
2023-04-26T05:12:27.646Z,99443.94
2023-04-26T05:14:57.558Z,99446.55
2023-04-26T05:17:30.458Z,99442.47
2023-04-26T05:20:03.856Z,99447.77
2023-04-26T05:22:36.207Z,99443.69
2023-04-26T05:25:13.123Z,99447.32
2023-04-26T05:27:45.289Z,99453.42
2023-04-26T05:30:24.067Z,99446.48
2023-04-26T05:33:23.049Z,99458.86
2023-04-26T05:35:59.930Z,99451.27
2023-04-26T05:38:30.654Z,99454.28
2023-04-26T05:41:01.185Z,99460.17
2023-04-26T05:43:32.738Z,99455.84
2023-04-26T05:46:02.927Z,99452.52
2023-04-26T05:48:33.586Z,99447.36
2023-04-26T05:51:04.755Z,99460.75
2023-04-26T05:53:34.847Z,99454.75
2023-04-26T05:56:07.225Z,99458.73
2023-04-26T05:58:38.970Z,99457.80
2023-04-26T06:01:09.699Z,99447.30
2023-04-26T06:03:41.626Z,99449.03
2023-04-26T06:06:13.009Z,99445.66
2023-04-26T06:08:45.384Z,99450.03
2023-04-26T06:11:16.746Z,99439.94
2023-04-26T06:13:46.853Z,99435.51
2023-04-26T06:16:17.286Z,99437.42
2023-04-26T06:18:47.896Z,99425.00
2023-04-26T06:21:18.636Z,99420.75
2023-04-26T06:23:50.598Z,99413.05
2023-04-26T06:26:22.761Z,99413.10
2023-04-26T06:28:54.311Z,99412.33
2023-04-26T06:31:24.302Z,99413.63
2023-04-26T06:33:55.697Z,99410.39
2023-04-26T06:36:27.655Z,99412.84
2023-04-26T06:38:58.469Z,99418.41
2023-04-26T06:41:28.795Z,99414.18
2023-04-26T06:43:59.732Z,99417.08
2023-04-26T06:46:34.191Z,99419.73
2023-04-26T06:49:04.677Z,99425.65
2023-04-26T06:51:35.217Z,99424.00
2023-04-26T06:54:05.945Z,99428.50
2023-04-26T06:56:36.675Z,99434.30
2023-04-26T06:59:08.220Z,99430.45
2023-04-26T07:01:39.219Z,99428.23
2023-04-26T07:04:10.871Z,99430.75
2023-04-26T07:06:41.033Z,99437.81
2023-04-26T07:09:11.976Z,99433.15
2023-04-26T07:11:42.457Z,99435.00
2023-04-26T07:14:13.067Z,99429.75
2023-04-26T07:16:42.993Z,99429.37
2023-04-26T07:19:13.265Z,99433.30
2023-04-26T07:21:42.916Z,99439.88
2023-04-26T07:24:13.836Z,99430.42
2023-04-26T07:26:43.833Z,99428.72
2023-04-26T07:29:13.747Z,99428.33
2023-04-26T07:31:44.059Z,99428.48
2023-04-26T07:34:14.794Z,99429.22
2023-04-26T07:36:45.935Z,99429.14
2023-04-26T07:39:16.677Z,99432.27
2023-04-26T07:41:47.617Z,99435.42
2023-04-26T07:44:17.733Z,99441.47
2023-04-26T07:46:48.050Z,99447.84
2023-04-26T07:49:18.168Z,99448.30
2023-04-26T07:51:50.736Z,99443.64
2023-04-26T07:54:21.278Z,99439.52
2023-04-26T07:56:51.596Z,99452.80
2023-04-26T07:59:22.117Z,99451.61
2023-04-26T08:01:52.109Z,99444.52
2023-04-26T08:04:33.356Z,99449.78
2023-04-26T08:07:03.739Z,99453.72
2023-04-26T08:09:34.675Z,99454.11
2023-04-26T08:12:08.234Z,99455.49
2023-04-26T08:14:38.812Z,99455.56
2023-04-26T08:17:09.597Z,99455.41
2023-04-26T08:19:40.884Z,99461.69
2023-04-26T08:22:11.212Z,99463.66
2023-04-26T08:24:41.729Z,99458.38
2023-04-26T08:27:12.463Z,99456.28
2023-04-26T08:29:43.210Z,99459.00
2023-04-26T08:32:13.721Z,99456.88
2023-04-26T08:34:44.456Z,99464.96
2023-04-26T08:37:15.612Z,99458.79
2023-04-26T08:39:47.350Z,99467.16
2023-04-26T08:42:18.672Z,99461.50
2023-04-26T08:44:49.033Z,99463.41
2023-04-26T08:47:31.116Z,99458.06
2023-04-26T08:50:03.559Z,99456.16
2023-04-26T08:52:35.551Z,99456.15
2023-04-26T08:55:10.193Z,99460.44
2023-04-26T08:57:41.127Z,99457.50
2023-04-26T09:00:16.452Z,99462.05
2023-04-26T09:02:50.670Z,99460.72
2023-04-26T09:05:23.669Z,99463.12
2023-04-26T09:08:00.285Z,99461.50
2023-04-26T09:10:31.794Z,99460.72
2023-04-26T09:13:01.900Z,99464.47
2023-04-26T09:15:32.052Z,99466.61
2023-04-26T09:18:20.796Z,99463.11
2023-04-26T09:21:09.209Z,99461.70
2023-04-26T09:23:59.112Z,99451.72
2023-04-26T09:26:29.852Z,99452.77
2023-04-26T09:29:15.108Z,99456.73
2023-04-26T09:31:49.492Z,99462.08
2023-04-26T09:34:20.674Z,99459.59
2023-04-26T09:36:56.533Z,99457.92
2023-04-26T09:39:35.386Z,99460.28
2023-04-26T09:42:08.255Z,99464.30
2023-04-26T09:44:39.158Z,99456.92
2023-04-26T09:47:11.918Z,99458.20
2023-04-26T09:49:50.199Z,99460.27
2023-04-26T09:52:20.800Z,99451.58
2023-04-26T09:54:52.333Z,99452.27
2023-04-26T09:57:23.813Z,99458.61
2023-04-26T09:59:56.054Z,99449.05
2023-04-26T10:02:29.335Z,99453.25
2023-04-26T10:05:01.677Z,99454.23
2023-04-26T10:07:32.786Z,99451.53
2023-04-26T10:10:04.195Z,99454.36
2023-04-26T10:12:35.997Z,99453.38
2023-04-26T10:15:10.985Z,99457.70
2023-04-26T10:17:41.692Z,99449.42
2023-04-26T10:20:13.992Z,99447.88
2023-04-26T10:22:50.459Z,99447.52
2023-04-26T10:25:34.916Z,99441.22
2023-04-26T10:28:05.454Z,99448.97
2023-04-26T10:30:56.674Z,99444.81
2023-04-26T10:33:27.600Z,99443.05
2023-04-26T10:36:10.193Z,99444.57
2023-04-26T10:38:42.813Z,99442.09
2023-04-26T10:41:33.956Z,99444.41
2023-04-26T10:44:39.156Z,99446.94
2023-04-26T10:47:21.571Z,99435.23
2023-04-26T10:49:51.863Z,99439.96
2023-04-26T10:52:22.806Z,99437.16
2023-04-26T10:54:55.253Z,99437.36
2023-04-26T10:57:46.817Z,99429.96
2023-04-26T11:00:27.464Z,99428.16
2023-04-26T11:03:03.083Z,99425.30
2023-04-26T11:05:50.953Z,99423.17
2023-04-26T11:08:25.565Z,99432.51
2023-04-26T11:11:10.644Z,99423.96
2023-04-26T11:13:42.457Z,99431.70
2023-04-26T11:16:14.044Z,99429.67
2023-04-26T11:18:46.301Z,99427.06
2023-04-26T11:21:19.262Z,99420.60
2023-04-26T11:23:56.107Z,99433.98
2023-04-26T11:26:34.083Z,99424.24
2023-04-26T11:29:08.100Z,99430.34
2023-04-26T11:31:37.972Z,99429.73
2023-04-26T11:34:08.532Z,99420.98
2023-04-26T11:36:39.471Z,99433.32
2023-04-26T11:39:11.582Z,99436.77
2023-04-26T11:41:44.015Z,99436.33
2023-04-26T11:44:18.012Z,99439.42
2023-04-26T11:46:49.655Z,99441.52
2023-04-26T11:49:20.515Z,99431.37
2023-04-26T11:51:51.448Z,99433.96
2023-04-26T11:54:32.625Z,99440.87
2023-04-26T11:57:15.401Z,99432.97
2023-04-26T11:59:47.007Z,99431.91
2023-04-26T12:02:18.593Z,99439.63
2023-04-26T12:04:59.220Z,99431.36
2023-04-26T12:07:35.576Z,99431.25
2023-04-26T12:10:21.865Z,99438.28
2023-04-26T12:12:54.050Z,99435.89
2023-04-26T12:15:32.135Z,99438.02
2023-04-26T12:18:08.414Z,99447.20
2023-04-26T12:20:40.399Z,99449.05
2023-04-26T12:23:13.974Z,99448.50
2023-04-26T12:25:55.353Z,99459.09
2023-04-26T12:28:25.678Z,99465.59
2023-04-26T12:30:56.418Z,99463.48
2023-04-26T12:33:26.953Z,99468.03
2023-04-26T12:35:59.861Z,99464.91
2023-04-26T12:38:31.884Z,99477.75
2023-04-26T12:41:03.434Z,99483.55
2023-04-26T12:43:35.193Z,99486.03
2023-04-26T12:46:05.617Z,99489.11
2023-04-26T12:48:36.448Z,99496.05
2023-04-26T12:51:09.027Z,99510.98
2023-04-26T12:53:39.549Z,99514.78
2023-04-26T12:56:10.294Z,99519.55
2023-04-26T12:58:41.021Z,99512.46
2023-04-26T13:01:13.611Z,99515.87
2023-04-26T13:03:45.074Z,99517.91
2023-04-26T13:06:18.546Z,99525.32
2023-04-26T13:08:48.669Z,99524.12
2023-04-26T13:11:18.785Z,99525.62
2023-04-26T13:13:49.921Z,99538.41
2023-04-26T13:16:20.300Z,99537.77
2023-04-26T13:18:50.970Z,99546.45
2023-04-26T13:21:21.499Z,99548.13
2023-04-26T13:23:51.410Z,99551.77
2023-04-26T13:26:21.513Z,99561.31
2023-04-26T13:28:52.057Z,99557.16
2023-04-26T13:31:22.022Z,99559.39
2023-04-26T13:33:52.707Z,99563.27
2023-04-26T13:36:22.820Z,99567.73
2023-04-26T13:38:53.554Z,99568.98
2023-04-26T13:41:25.104Z,99571.02
2023-04-26T13:43:55.650Z,99564.21
2023-04-26T13:46:26.400Z,99572.99
2023-04-26T13:48:57.305Z,99578.50
2023-04-26T13:51:30.222Z,99567.72
2023-04-26T13:54:00.195Z,99568.47
2023-04-26T13:56:30.324Z,99570.24
2023-04-26T13:59:03.025Z,99572.32
2023-04-26T14:01:35.752Z,99565.84
2023-04-26T14:04:10.023Z,99571.67
2023-04-26T14:06:40.415Z,99579.95
2023-04-26T14:09:11.660Z,99575.41
2023-04-26T14:11:41.877Z,99578.08
2023-04-26T14:14:12.610Z,99575.33
2023-04-26T14:16:42.640Z,99584.09
2023-04-26T14:19:15.061Z,99592.91
2023-04-26T14:21:45.834Z,99592.11
2023-04-26T14:24:16.562Z,99602.23
2023-04-26T14:26:47.512Z,99606.53
2023-04-26T14:29:17.824Z,99609.43
2023-04-26T14:31:47.471Z,99604.08
2023-04-26T14:34:18.065Z,99623.05
2023-04-26T14:36:48.588Z,99622.00
2023-04-26T14:39:19.320Z,99629.45
2023-04-26T14:41:50.261Z,99629.45
2023-04-26T14:44:22.812Z,99637.70
2023-04-26T14:46:52.570Z,99637.13
2023-04-26T14:49:23.073Z,99636.56
2023-04-26T14:51:53.848Z,99639.01
2023-04-26T14:54:24.745Z,99635.77
2023-04-26T14:56:54.865Z,99639.01
2023-04-26T14:59:25.391Z,99641.42
2023-04-26T15:01:56.272Z,99648.39
2023-04-26T15:04:27.217Z,99649.79
2023-04-26T15:06:58.406Z,99642.56
2023-04-26T15:09:30.817Z,99649.31
2023-04-26T15:12:02.132Z,99645.33
2023-04-26T15:14:32.447Z,99644.05
2023-04-26T15:17:02.850Z,99641.38
2023-04-26T15:19:34.117Z,99647.52
2023-04-26T15:22:05.463Z,99654.48
2023-04-26T15:24:38.239Z,99649.71
2023-04-26T15:27:08.569Z,99648.66
2023-04-26T15:29:39.098Z,99652.16
2023-04-26T15:32:09.420Z,99656.45
2023-04-26T15:34:43.256Z,99652.73
2023-04-26T15:37:15.389Z,99657.25
2023-04-26T15:39:47.349Z,99660.75
2023-04-26T15:42:17.872Z,99664.48
2023-04-26T15:44:48.607Z,99673.30
2023-04-26T15:47:18.914Z,99671.67
2023-04-26T15:49:50.909Z,99685.30
2023-04-26T15:52:21.622Z,99682.77
2023-04-26T15:54:52.158Z,99687.54
2023-04-26T15:57:23.087Z,99692.57
2023-04-26T15:59:53.625Z,99688.97
2023-04-26T16:02:23.386Z,99696.90
2023-04-26T16:04:54.736Z,99696.80
2023-04-26T16:07:25.201Z,99697.05
2023-04-26T16:09:56.144Z,99701.58
2023-04-26T16:12:27.086Z,99707.40
2023-04-26T16:14:57.811Z,99706.60
2023-04-26T16:17:27.948Z,99716.72
2023-04-26T16:19:58.045Z,99727.05
2023-04-26T16:22:29.601Z,99740.31
2023-04-26T16:25:01.572Z,99733.24
2023-04-26T16:27:31.882Z,99733.39
2023-04-26T16:30:03.434Z,99737.00
2023-04-26T16:32:33.799Z,99738.73
2023-04-26T16:35:04.695Z,99737.47
2023-04-26T16:37:35.425Z,99747.00
2023-04-26T16:40:10.734Z,99750.02
2023-04-26T16:42:42.826Z,99756.08
2023-04-26T16:45:16.056Z,99763.97
2023-04-26T16:47:47.180Z,99772.66
2023-04-26T16:50:18.102Z,99778.24
2023-04-26T16:52:48.093Z,99780.55
2023-04-26T16:55:19.116Z,99778.77
2023-04-26T16:57:49.058Z,99779.23
2023-04-26T17:00:21.013Z,99795.25
2023-04-26T17:02:51.275Z,99796.75
2023-04-26T17:05:22.454Z,99803.25
2023-04-26T17:07:52.825Z,99799.25
2023-04-26T17:10:25.973Z,99803.87
2023-04-26T17:12:55.633Z,99809.32
2023-04-26T17:15:26.858Z,99814.28
2023-04-26T17:17:57.626Z,99824.36
2023-04-26T17:20:28.540Z,99818.44
2023-04-26T17:22:59.670Z,99831.19
2023-04-26T17:25:31.039Z,99836.77
2023-04-26T17:28:01.338Z,99838.26
2023-04-26T17:30:32.281Z,99839.51
2023-04-26T17:33:02.910Z,99842.86
2023-04-26T17:35:33.737Z,99848.64
2023-04-26T17:38:04.507Z,99844.56
2023-04-26T17:40:34.791Z,99844.21
2023-04-26T17:43:04.708Z,99847.98
2023-04-26T17:45:34.632Z,99853.55
2023-04-26T17:48:10.555Z,99858.29
2023-04-26T17:50:41.208Z,99862.44
2023-04-26T17:53:12.561Z,99867.77
2023-04-26T17:55:43.489Z,99866.14
2023-04-26T17:58:14.019Z,99868.22
2023-04-26T18:00:44.953Z,99881.98
2023-04-26T18:03:15.664Z,99888.80
2023-04-26T18:05:46.252Z,99893.09
2023-04-26T18:08:17.152Z,99896.20
2023-04-26T18:10:50.134Z,99896.20
2023-04-26T18:13:21.124Z,99906.27
2023-04-26T18:15:55.322Z,99911.59
2023-04-26T18:18:27.801Z,99911.80
2023-04-26T18:20:58.186Z,99916.54
2023-04-26T18:23:28.920Z,99921.51
2023-04-26T18:25:59.648Z,99933.20
2023-04-26T18:28:30.801Z,99935.27
2023-04-26T18:31:03.021Z,99939.17
2023-04-26T18:33:33.698Z,99943.91
2023-04-26T18:36:05.246Z,99956.63
2023-04-26T18:38:35.978Z,99961.36
2023-04-26T18:41:06.502Z,99968.56
2023-04-26T18:43:36.623Z,99970.02
2023-04-26T18:46:08.463Z,99977.19
2023-04-26T18:48:41.159Z,99983.78
2023-04-26T18:51:11.277Z,99990.34
2023-04-26T18:53:42.006Z,99991.38
2023-04-26T18:56:12.735Z,99989.14
2023-04-26T18:58:43.305Z,99991.64
2023-04-26T19:01:20.401Z,99992.87
2023-04-26T19:03:51.837Z,99991.44
2023-04-26T19:06:22.252Z,99992.91
2023-04-26T19:08:53.376Z,99996.23
2023-04-26T19:11:26.975Z,100000.13
2023-04-26T19:13:57.086Z,100008.34
2023-04-26T19:16:28.567Z,100009.56
2023-04-26T19:19:02.676Z,100017.78
2023-04-26T19:21:33.583Z,100030.27
2023-04-26T19:24:04.934Z,100022.51
2023-04-26T19:26:36.711Z,100027.23
2023-04-26T19:29:07.258Z,100029.06
2023-04-26T19:31:37.365Z,100028.27
2023-04-26T19:34:08.063Z,100033.78
2023-04-26T19:36:42.085Z,100028.69
2023-04-26T19:39:13.218Z,100034.20
2023-04-26T19:41:43.931Z,100029.91
2023-04-26T19:44:14.077Z,100035.47
2023-04-26T19:46:46.272Z,100039.95
2023-04-26T19:49:16.355Z,100037.30
2023-04-26T19:51:46.491Z,100043.65
2023-04-26T19:54:18.234Z,100040.98
2023-04-26T19:56:48.553Z,100044.91
2023-04-26T19:59:19.289Z,100047.99
2023-04-26T20:01:52.282Z,100053.31
2023-04-26T20:04:24.207Z,100052.48
2023-04-26T20:06:54.966Z,100057.00
2023-04-26T20:09:25.492Z,100051.08
2023-04-26T20:11:56.233Z,100052.10
2023-04-26T20:14:29.651Z,100050.67
2023-04-26T20:17:01.665Z,100052.53
2023-04-26T20:19:30.874Z,100061.54
2023-04-26T20:22:00.994Z,100059.30
2023-04-26T20:24:32.757Z,100066.45
2023-04-26T20:27:03.077Z,100073.83
2023-04-26T20:29:34.011Z,100075.88
2023-04-26T20:32:05.438Z,100073.22
2023-04-26T20:34:36.086Z,100073.87
2023-04-26T20:37:07.233Z,100078.58
2023-04-26T20:39:37.757Z,100079.00
2023-04-26T20:42:09.308Z,100082.27
2023-04-26T20:44:39.849Z,100078.81
2023-04-26T20:47:09.912Z,100090.90
2023-04-26T20:49:40.691Z,100079.27
2023-04-26T20:52:12.447Z,100087.66
2023-04-26T20:54:43.752Z,100080.28
2023-04-26T20:57:14.529Z,100085.41
2023-04-26T20:59:45.877Z,100085.82
2023-04-26T21:02:16.148Z,100093.19
2023-04-26T21:04:47.134Z,100094.63
2023-04-26T21:07:17.457Z,100095.65
2023-04-26T21:09:48.803Z,100094.23
2023-04-26T21:12:18.727Z,100096.47
2023-04-26T21:14:49.859Z,100100.38
2023-04-26T21:17:19.734Z,100097.52
2023-04-26T21:19:50.505Z,100098.53
2023-04-26T21:22:21.041Z,100101.60
2023-04-26T21:24:52.990Z,100095.67
2023-04-26T21:27:23.320Z,100110.39
2023-04-26T21:29:53.841Z,100109.16
2023-04-26T21:32:23.640Z,100111.40
2023-04-26T21:34:53.677Z,100120.58
2023-04-26T21:37:24.001Z,100123.03
2023-04-26T21:39:54.520Z,100125.07
2023-04-26T21:42:25.252Z,100134.28
2023-04-26T21:44:55.786Z,100138.52
2023-04-26T21:47:25.948Z,100137.28
2023-04-26T21:49:56.634Z,100137.90
2023-04-26T21:52:27.159Z,100140.12
2023-04-26T21:54:58.093Z,100147.69
2023-04-26T21:57:28.838Z,100153.59
2023-04-26T21:59:59.558Z,100156.64
2023-04-26T22:02:29.583Z,100160.72
2023-04-26T22:05:00.209Z,100159.69
2023-04-26T22:07:30.958Z,100160.48
2023-04-26T22:10:03.105Z,100161.28
2023-04-26T22:12:33.840Z,100158.40
2023-04-26T22:15:06.422Z,100170.22
2023-04-26T22:17:34.826Z,100157.55
2023-04-26T22:20:08.042Z,100165.91
2023-04-26T22:22:38.400Z,100174.05
2023-04-26T22:25:11.114Z,100167.31
2023-04-26T22:27:41.924Z,100173.02
2023-04-26T22:30:24.750Z,100176.87
2023-04-26T22:32:58.887Z,100178.90
2023-04-26T22:35:29.680Z,100179.29
2023-04-26T22:38:00.222Z,100187.64
2023-04-26T22:40:31.756Z,100189.48
2023-04-26T22:43:02.292Z,100190.50
2023-04-26T22:45:33.197Z,100188.03
2023-04-26T22:48:03.386Z,100189.25
2023-04-26T22:50:34.734Z,100188.19
2023-04-26T22:53:05.648Z,100205.50
2023-04-26T22:55:35.949Z,100200.59
2023-04-26T22:58:06.069Z,100201.18
2023-04-26T23:00:36.591Z,100202.38
2023-04-26T23:03:06.470Z,100203.77
2023-04-26T23:05:38.056Z,100202.97
2023-04-26T23:08:08.995Z,100201.50
2023-04-26T23:10:40.728Z,100203.73
2023-04-26T23:13:11.279Z,100203.28
2023-04-26T23:15:42.218Z,100201.23
2023-04-26T23:18:13.364Z,100199.59
2023-04-26T23:20:43.268Z,100197.49
2023-04-26T23:23:14.216Z,100200.35
2023-04-26T23:25:44.736Z,100194.42
2023-04-26T23:28:14.654Z,100200.91
2023-04-26T23:30:44.559Z,100203.77
2023-04-26T23:33:14.492Z,100199.86
2023-04-26T23:35:44.594Z,100206.17
2023-04-26T23:38:15.947Z,100200.03
2023-04-26T23:40:46.687Z,100193.30
2023-04-26T23:43:17.405Z,100205.72
2023-04-26T23:45:48.089Z,100206.73
2023-04-26T23:48:19.282Z,100211.40
2023-04-26T23:50:49.805Z,100212.41
2023-04-26T23:53:20.545Z,100212.41
2023-04-26T23:55:51.067Z,100216.06
2023-04-26T23:58:21.594Z,100216.06
